Time;durP1;ratioP1;P1;durP2;ratioP2;P2;SDS_P1;SDS_P2;PMS_P1;PMS_P2;Temp;Humidity;BMP_temperature;BMP_pressure;BME280_temperature;BME280_humidity;BME280_pressure;Samples;Min_cycle;Max_cycle;Signal;HPM_P1;HPM_P2
2021/03/21 00:00:48;;;;;;;8.85;3.78;;;;;;;;;;5011539;28;20054;-85
2021/03/21 00:03:16;;;;;;;7.97;4.28;;;;;;;;;;4995736;28;20050;-86
2021/03/21 00:05:42;;;;;;;9.90;4.32;;;;;;;;;;4994679;28;20505;-84
2021/03/21 00:08:13;;;;;;;12.20;4.80;;;;;;;;;;5012473;28;20474;-85
2021/03/21 00:10:39;;;;;;;13.55;4.95;;;;;;;;;;4995144;28;20057;-86
2021/03/21 00:13:05;;;;;;;8.38;4.43;;;;;;;;;;5011210;28;20056;-86
2021/03/21 00:15:32;;;;;;;9.48;4.00;;;;;;;;;;5011247;28;20058;-86
2021/03/21 00:17:59;;;;;;;11.00;4.40;;;;;;;;;;4991549;28;20058;-86
2021/03/21 00:20:28;;;;;;;10.48;4.75;;;;;;;;;;5007992;28;20050;-86
2021/03/21 00:22:55;;;;;;;9.13;4.50;;;;;;;;;;4976014;28;20058;-86
2021/03/21 00:25:23;;;;;;;9.38;4.15;;;;;;;;;;4975167;28;20058;-86
2021/03/21 00:27:49;;;;;;;10.35;4.35;;;;;;;;;;4991665;28;20058;-86
2021/03/21 00:30:21;;;;;;;7.47;3.92;;;;;;;;;;4994762;28;20394;-86
2021/03/21 00:32:48;;;;;;;5.60;3.25;;;;;;;;;;4995623;28;20054;-86
2021/03/21 00:35:15;;;;;;;5.35;3.40;;;;;;;;;;4994918;28;20112;-86
2021/03/21 00:37:42;;;;;;;4.97;3.10;;;;;;;;;;4978624;28;20065;-86
2021/03/21 00:40:13;;;;;;;5.38;3.28;;;;;;;;;;4978917;28;20065;-87
2021/03/21 00:42:39;;;;;;;4.95;3.00;;;;;;;;;;4994781;28;20117;-87
2021/03/21 00:45:07;;;;;;;6.13;3.20;;;;;;;;;;4978705;28;20041;-86
2021/03/21 00:47:34;;;;;;;6.32;3.40;;;;;;;;;;4997510;28;20058;-86
2021/03/21 00:50:00;;;;;;;5.72;3.00;;;;;;;;;;4999083;28;20065;-86
2021/03/21 00:52:27;;;;;;;5.00;3.50;;;;;;;;;;4998443;28;20054;-85
2021/03/21 00:54:53;;;;;;;6.22;3.45;;;;;;;;;;5014688;28;20054;-85
2021/03/21 00:57:27;;;;;;;6.05;3.72;;;;;;;;;;5014670;28;20490;-84
2021/03/21 00:59:54;;;;;;;7.28;3.50;;;;;;;;;;5011229;28;20517;-84
2021/03/21 01:02:20;;;;;;;6.65;4.00;;;;;;;;;;4995009;28;20050;-84
2021/03/21 01:04:47;;;;;;;7.43;2.92;;;;;;;;;;5011105;28;20062;-85
2021/03/21 01:07:13;;;;;;;4.55;3.25;;;;;;;;;;4994790;28;20058;-85
2021/03/21 01:09:39;;;;;;;4.60;2.92;;;;;;;;;;4994618;28;20054;-86
2021/03/21 01:12:06;;;;;;;4.20;2.53;;;;;;;;;;5010841;28;20054;-86
2021/03/21 01:14:32;;;;;;;3.83;2.75;;;;;;;;;;4997499;28;20054;-86
2021/03/21 01:16:58;;;;;;;4.70;2.80;;;;;;;;;;5013955;28;20046;-86
2021/03/21 01:19:25;;;;;;;3.67;2.95;;;;;;;;;;5013990;28;20061;-85
2021/03/21 01:21:51;;;;;;;4.53;2.70;;;;;;;;;;5014064;28;20285;-86
2021/03/21 01:24:19;;;;;;;5.60;2.97;;;;;;;;;;4997978;28;20046;-86
2021/03/21 01:26:46;;;;;;;4.00;2.72;;;;;;;;;;4997962;28;20517;-86
2021/03/21 01:29:12;;;;;;;6.15;2.85;;;;;;;;;;4994481;28;20065;-86
2021/03/21 01:31:39;;;;;;;3.95;3.00;;;;;;;;;;4994356;28;20066;-86
2021/03/21 01:34:08;;;;;;;5.93;2.95;;;;;;;;;;4994449;28;20512;-85
2021/03/21 01:36:37;;;;;;;6.28;3.50;;;;;;;;;;4994166;28;20062;-86
2021/03/21 01:39:10;;;;;;;5.50;2.60;;;;;;;;;;4994346;28;20072;-86
2021/03/21 01:41:38;;;;;;;6.07;2.95;;;;;;;;;;5010847;28;20490;-86
2021/03/21 01:44:10;;;;;;;4.13;2.60;;;;;;;;;;4996802;28;20058;-87
2021/03/21 01:46:36;;;;;;;4.43;2.75;;;;;;;;;;5013484;28;20060;-86
2021/03/21 01:49:13;;;;;;;4.18;2.60;;;;;;;;;;5014836;28;20399;-85
2021/03/21 01:51:40;;;;;;;4.45;2.72;;;;;;;;;;4998546;28;20046;-83
2021/03/21 01:54:12;;;;;;;3.92;2.63;;;;;;;;;;4997304;28;20061;-86
2021/03/21 01:56:39;;;;;;;6.07;2.72;;;;;;;;;;4997247;28;20061;-86
2021/03/21 01:59:15;;;;;;;4.53;2.88;;;;;;;;;;4996613;28;20065;-85
2021/03/21 02:01:42;;;;;;;4.57;2.30;;;;;;;;;;5013405;28;20057;-85
2021/03/21 02:04:09;;;;;;;4.78;2.80;;;;;;;;;;4997315;28;20394;-85
2021/03/21 02:06:35;;;;;;;3.53;2.70;;;;;;;;;;5013629;28;20089;-85
2021/03/21 02:09:06;;;;;;;6.07;2.70;;;;;;;;;;5014288;28;20053;-85
2021/03/21 02:12:09;;;;;;;4.00;2.85;;;;;;;;;;4997639;28;20057;-83
2021/03/21 02:14:56;;;;;;;4.43;2.50;;;;;;;;;;5014922;28;20053;-83
2021/03/21 02:17:37;;;;;;;4.35;2.65;;;;;;;;;;5047971;28;20506;-85
2021/03/21 02:20:06;;;;;;;4.47;2.58;;;;;;;;;;5013565;28;20494;-85
2021/03/21 02:22:37;;;;;;;3.50;2.70;;;;;;;;;;5014332;28;20049;-87
2021/03/21 02:25:07;;;;;;;6.75;2.60;;;;;;;;;;5013628;28;20056;-87
2021/03/21 02:27:55;;;;;;;4.65;3.05;;;;;;;;;;5015985;28;20057;-88
2021/03/21 02:30:36;;;;;;;5.88;2.72;;;;;;;;;;4997409;28;20050;-89
2021/03/21 02:33:13;;;;;;;5.07;2.50;;;;;;;;;;4996881;28;20050;-88
2021/03/21 02:35:47;;;;;;;6.63;2.55;;;;;;;;;;4997090;28;20058;-88
2021/03/21 02:38:23;;;;;;;3.55;2.60;;;;;;;;;;4996421;28;20115;-88
2021/03/21 02:40:52;;;;;;;3.88;2.70;;;;;;;;;;4996148;28;20053;-88
2021/03/21 02:43:32;;;;;;;6.32;2.60;;;;;;;;;;4996479;28;20053;-88
2021/03/21 02:46:02;;;;;;;6.20;3.20;;;;;;;;;;4996769;28;20049;-88
2021/03/21 02:48:35;;;;;;;6.00;2.40;;;;;;;;;;5012538;28;20056;-88
2021/03/21 02:51:23;;;;;;;6.55;3.30;;;;;;;;;;5012280;28;20049;-87
2021/03/21 02:54:03;;;;;;;5.22;2.80;;;;;;;;;;5012727;28;20506;-85
2021/03/21 02:56:30;;;;;;;4.35;2.60;;;;;;;;;;4990862;28;20068;-87
2021/03/21 02:59:11;;;;;;;6.93;3.42;;;;;;;;;;4996890;28;20073;-86
2021/03/21 03:01:53;;;;;;;4.05;2.70;;;;;;;;;;4993368;28;20054;-86
2021/03/21 03:04:51;;;;;;;3.35;2.42;;;;;;;;;;4992668;28;20054;-85
2021/03/21 03:07:40;;;;;;;4.88;3.05;;;;;;;;;;5022530;28;20062;-86
2021/03/21 03:10:21;;;;;;;3.83;2.88;;;;;;;;;;4980696;28;20138;-86
2021/03/21 03:13:16;;;;;;;3.95;2.65;;;;;;;;;;4996172;28;20524;-86
2021/03/21 03:15:42;;;;;;;6.63;3.30;;;;;;;;;;5013488;28;20516;-87
2021/03/21 03:18:37;;;;;;;5.85;3.03;;;;;;;;;;4979843;28;20053;-87
2021/03/21 03:21:21;;;;;;;4.55;2.63;;;;;;;;;;5011650;28;20052;-87
2021/03/21 03:23:47;;;;;;;5.35;2.80;;;;;;;;;;4998133;28;20073;-87
2021/03/21 03:26:16;;;;;;;5.28;2.90;;;;;;;;;;5007434;28;20050;-87
2021/03/21 03:28:48;;;;;;;4.53;2.55;;;;;;;;;;5023474;28;20069;-87
2021/03/21 03:31:18;;;;;;;4.32;3.33;;;;;;;;;;5016460;28;20056;-86
2021/03/21 03:33:45;;;;;;;5.80;3.28;;;;;;;;;;5006744;28;20072;-85
2021/03/21 03:36:14;;;;;;;4.72;2.78;;;;;;;;;;4995968;28;20104;-86
2021/03/21 03:38:42;;;;;;;3.58;2.70;;;;;;;;;;4998270;28;20064;-85
2021/03/21 03:41:23;;;;;;;4.60;3.03;;;;;;;;;;5017788;28;20513;-85
2021/03/21 03:44:13;;;;;;;3.72;2.65;;;;;;;;;;5012518;28;20085;-85
2021/03/21 03:46:52;;;;;;;3.85;2.40;;;;;;;;;;4998143;28;20065;-84
2021/03/21 03:49:55;;;;;;;5.63;3.05;;;;;;;;;;4996872;28;20057;-84
2021/03/21 03:52:40;;;;;;;5.32;2.83;;;;;;;;;;5012962;28;20050;-86
2021/03/21 03:55:22;;;;;;;4.32;2.42;;;;;;;;;;5005794;28;20057;-86
2021/03/21 03:57:58;;;;;;;4.18;2.30;;;;;;;;;;5011639;28;20069;-87
2021/03/21 04:00:47;;;;;;;3.78;2.60;;;;;;;;;;5011595;28;20064;-87
2021/03/21 04:03:35;;;;;;;3.60;2.83;;;;;;;;;;4970255;28;20050;-84
2021/03/21 04:06:22;;;;;;;4.10;2.95;;;;;;;;;;5007943;28;20054;-85
2021/03/21 04:08:52;;;;;;;4.10;2.90;;;;;;;;;;5007845;28;20050;-86
2021/03/21 04:11:29;;;;;;;4.00;2.55;;;;;;;;;;4991768;28;20058;-85
2021/03/21 04:14:08;;;;;;;4.22;2.70;;;;;;;;;;5007948;28;20057;-85
2021/03/21 04:17:26;;;;;;;5.55;3.50;;;;;;;;;;4994794;28;20057;-86
2021/03/21 04:20:15;;;;;;;5.20;2.78;;;;;;;;;;4997071;28;20109;-86
2021/03/21 04:23:34;;;;;;;6.10;2.63;;;;;;;;;;5006534;28;20421;-86
2021/03/21 04:26:03;;;;;;;4.28;3.00;;;;;;;;;;5003866;28;20050;-86
2021/03/21 04:28:41;;;;;;;4.10;2.33;;;;;;;;;;4959634;28;20553;-85
2021/03/21 04:31:08;;;;;;;6.85;2.50;;;;;;;;;;4968834;28;20141;-82
2021/03/21 04:33:48;;;;;;;4.93;2.65;;;;;;;;;;4996939;28;20058;-83
2021/03/21 04:36:41;;;;;;;5.75;2.60;;;;;;;;;;4996239;28;20061;-84
2021/03/21 04:39:08;;;;;;;4.18;2.80;;;;;;;;;;5025488;28;20085;-84
2021/03/21 04:42:10;;;;;;;5.30;2.80;;;;;;;;;;5010661;28;20065;-84
2021/03/21 04:44:39;;;;;;;6.10;2.70;;;;;;;;;;4956390;28;20502;-83
2021/03/21 04:47:13;;;;;;;4.18;3.28;;;;;;;;;;5010712;28;20072;-84
2021/03/21 04:49:40;;;;;;;4.38;3.13;;;;;;;;;;4995429;28;20560;-83
2021/03/21 04:52:33;;;;;;;6.25;2.72;;;;;;;;;;5012133;28;20050;-82
2021/03/21 04:55:00;;;;;;;3.72;2.70;;;;;;;;;;5009792;28;20054;-82
2021/03/21 04:57:34;;;;;;;3.60;2.47;;;;;;;;;;4992340;28;20058;-83
2021/03/21 05:00:03;;;;;;;3.92;2.58;;;;;;;;;;4987583;28;20065;-82
2021/03/21 05:02:30;;;;;;;6.75;3.53;;;;;;;;;;4976964;28;20051;-83
2021/03/21 05:05:05;;;;;;;4.45;2.70;;;;;;;;;;4994146;28;20054;-84
2021/03/21 05:07:47;;;;;;;3.72;2.70;;;;;;;;;;4993420;28;20422;-83
2021/03/21 05:10:22;;;;;;;3.78;2.97;;;;;;;;;;4993664;28;20499;-83
2021/03/21 05:13:27;;;;;;;4.93;2.78;;;;;;;;;;4999064;28;20061;-83
2021/03/21 05:15:57;;;;;;;4.03;2.60;;;;;;;;;;5015486;28;20049;-84
2021/03/21 05:18:36;;;;;;;4.88;2.65;;;;;;;;;;4996038;28;20490;-80
2021/03/21 05:21:27;;;;;;;4.93;2.55;;;;;;;;;;5012236;28;20054;-84
2021/03/21 05:24:13;;;;;;;3.60;2.67;;;;;;;;;;4993744;28;20059;-84
2021/03/21 05:26:54;;;;;;;4.95;2.67;;;;;;;;;;4975278;28;20054;-84
2021/03/21 05:29:58;;;;;;;4.03;2.85;;;;;;;;;;4991472;28;20054;-84
2021/03/21 05:32:24;;;;;;;5.97;2.90;;;;;;;;;;4992399;28;20065;-85
2021/03/21 05:34:53;;;;;;;5.47;2.45;;;;;;;;;;4978795;28;20050;-83
2021/03/21 05:37:45;;;;;;;4.82;2.60;;;;;;;;;;4995515;28;20064;-84
2021/03/21 05:40:17;;;;;;;5.85;2.75;;;;;;;;;;4994503;28;20421;-84
2021/03/21 05:42:52;;;;;;;4.43;2.60;;;;;;;;;;5010519;28;20058;-85
2021/03/21 05:45:40;;;;;;;3.83;3.42;;;;;;;;;;5010361;28;20046;-84
2021/03/21 05:48:09;;;;;;;4.32;2.97;;;;;;;;;;4995280;28;20451;-84
2021/03/21 05:51:00;;;;;;;7.18;3.42;;;;;;;;;;5010294;28;20061;-84
2021/03/21 05:53:53;;;;;;;5.03;2.80;;;;;;;;;;5010417;28;20062;-84
2021/03/21 05:56:46;;;;;;;5.50;3.17;;;;;;;;;;4996421;28;20058;-85
2021/03/21 05:59:30;;;;;;;4.45;2.80;;;;;;;;;;4996535;28;20285;-85
2021/03/21 06:02:15;;;;;;;4.22;3.13;;;;;;;;;;5010480;28;20050;-84
2021/03/21 06:05:15;;;;;;;4.97;2.92;;;;;;;;;;4993861;28;20057;-84
2021/03/21 06:08:03;;;;;;;7.05;4.13;;;;;;;;;;4994092;28;20054;-86
2021/03/21 06:11:06;;;;;;;4.10;2.70;;;;;;;;;;4995634;28;20050;-86
2021/03/21 06:13:52;;;;;;;6.00;2.90;;;;;;;;;;4993586;28;20057;-85
2021/03/21 06:16:44;;;;;;;8.73;3.50;;;;;;;;;;4993648;28;20557;-85
2021/03/21 06:19:29;;;;;;;8.02;3.47;;;;;;;;;;4993822;28;20058;-84
2021/03/21 06:22:45;;;;;;;12.43;3.97;;;;;;;;;;5001206;28;20061;-85
2021/03/21 06:25:32;;;;;;;6.57;2.97;;;;;;;;;;4953601;29;20059;-84
2021/03/21 06:28:16;;;;;;;10.00;3.95;;;;;;;;;;4953581;29;20062;-84
2021/03/21 06:31:14;;;;;;;12.80;3.97;;;;;;;;;;5000004;28;20064;-84
2021/03/21 06:33:59;;;;;;;7.45;3.65;;;;;;;;;;4998634;28;20144;-84
2021/03/21 06:36:56;;;;;;;5.35;3.40;;;;;;;;;;5012278;28;20447;-84
2021/03/21 06:39:41;;;;;;;5.90;3.25;;;;;;;;;;4999322;28;20061;-84
2021/03/21 06:42:17;;;;;;;5.22;3.03;;;;;;;;;;5012388;28;20054;-84
2021/03/21 06:45:08;;;;;;;3.95;2.55;;;;;;;;;;5012373;28;20054;-84
2021/03/21 06:47:49;;;;;;;4.22;2.95;;;;;;;;;;5012426;28;20054;-84
2021/03/21 06:50:34;;;;;;;3.53;2.55;;;;;;;;;;5013347;28;20054;-84
2021/03/21 06:53:23;;;;;;;4.43;2.78;;;;;;;;;;5012379;28;20501;-84
2021/03/21 06:55:55;;;;;;;6.32;3.83;;;;;;;;;;4996173;28;20513;-84
2021/03/21 06:58:29;;;;;;;8.70;3.58;;;;;;;;;;5012560;28;20054;-84
2021/03/21 07:00:57;;;;;;;6.18;3.83;;;;;;;;;;5013099;28;20058;-83
2021/03/21 07:03:26;;;;;;;6.65;3.63;;;;;;;;;;5012304;28;20050;-83
2021/03/21 07:06:34;;;;;;;5.72;3.05;;;;;;;;;;5016081;28;20049;-83
2021/03/21 07:09:16;;;;;;;3.35;2.50;;;;;;;;;;5030308;28;20088;-82
2021/03/21 07:12:06;;;;;;;5.45;2.97;;;;;;;;;;5031838;28;20064;-83
2021/03/21 07:14:56;;;;;;;5.63;3.25;;;;;;;;;;5015747;28;20109;-83
2021/03/21 07:17:35;;;;;;;8.10;3.83;;;;;;;;;;5029933;28;20061;-83
2021/03/21 07:20:26;;;;;;;6.22;3.10;;;;;;;;;;5013895;28;20497;-83
2021/03/21 07:23:01;;;;;;;4.88;2.92;;;;;;;;;;5012114;28;20449;-83
2021/03/21 07:26:05;;;;;;;5.97;3.10;;;;;;;;;;5014098;28;20667;-82
2021/03/21 07:29:08;;;;;;;5.25;2.97;;;;;;;;;;5015356;28;20057;-82
2021/03/21 07:31:53;;;;;;;5.18;3.50;;;;;;;;;;5015873;28;20410;-82
2021/03/21 07:34:31;;;;;;;7.68;4.28;;;;;;;;;;5011942;28;20573;-83
2021/03/21 07:37:25;;;;;;;7.20;4.10;;;;;;;;;;5012870;28;20057;-82
2021/03/21 07:40:22;;;;;;;13.48;3.65;;;;;;;;;;5001114;28;20053;-82
2021/03/21 07:43:14;;;;;;;5.22;3.00;;;;;;;;;;5008920;28;20050;-83
2021/03/21 07:46:16;;;;;;;8.07;4.90;;;;;;;;;;5005226;28;20057;-84
2021/03/21 07:49:04;;;;;;;8.25;4.90;;;;;;;;;;4998224;28;20062;-84
2021/03/21 07:51:45;;;;;;;4.40;3.65;;;;;;;;;;5028141;28;20080;-83
2021/03/21 07:54:25;;;;;;;3.42;2.60;;;;;;;;;;5028559;28;20049;-81
2021/03/21 07:56:58;;;;;;;3.40;2.33;;;;;;;;;;4999176;28;20441;-80
2021/03/21 07:59:26;;;;;;;8.52;3.70;;;;;;;;;;5014330;28;20058;-80
2021/03/21 08:01:52;;;;;;;4.32;2.65;;;;;;;;;;5015198;28;20100;-81
2021/03/21 08:04:29;;;;;;;4.78;2.90;;;;;;;;;;5000229;28;20065;-81
2021/03/21 08:07:13;;;;;;;3.60;2.80;;;;;;;;;;5000037;28;20453;-82
2021/03/21 08:09:39;;;;;;;11.82;5.05;;;;;;;;;;4994117;28;20062;-80
2021/03/21 08:12:18;;;;;;;9.85;4.40;;;;;;;;;;4993958;28;20053;-81
2021/03/21 08:15:15;;;;;;;7.30;3.30;;;;;;;;;;5012892;28;20076;-81
2021/03/21 08:17:46;;;;;;;4.95;3.60;;;;;;;;;;5024150;28;20524;-82
2021/03/21 08:20:22;;;;;;;6.18;3.47;;;;;;;;;;5002530;28;20057;-82
2021/03/21 08:22:50;;;;;;;3.80;2.90;;;;;;;;;;4997056;28;20061;-83
2021/03/21 08:25:29;;;;;;;3.90;2.55;;;;;;;;;;5013321;28;20057;-83
2021/03/21 08:27:55;;;;;;;7.82;3.97;;;;;;;;;;5010634;28;20059;-82
2021/03/21 08:30:26;;;;;;;5.80;2.70;;;;;;;;;;5004254;28;20049;-83
2021/03/21 08:33:27;;;;;;;4.93;2.92;;;;;;;;;;5003289;28;20046;-83
2021/03/21 08:36:15;;;;;;;3.90;3.25;;;;;;;;;;4990104;28;20145;-83
2021/03/21 08:38:53;;;;;;;3.80;2.38;;;;;;;;;;4973475;28;20490;-82
2021/03/21 08:41:19;;;;;;;4.93;3.15;;;;;;;;;;4963777;28;20053;-82
2021/03/21 08:43:45;;;;;;;4.72;3.00;;;;;;;;;;4998011;28;20058;-81
2021/03/21 08:46:17;;;;;;;3.45;2.47;;;;;;;;;;4998170;28;20079;-81
2021/03/21 08:48:44;;;;;;;4.78;3.13;;;;;;;;;;4990392;28;20058;-81
2021/03/21 08:51:10;;;;;;;4.53;3.17;;;;;;;;;;5013721;28;20150;-82
2021/03/21 08:53:56;;;;;;;5.65;3.42;;;;;;;;;;5038611;28;20053;-82
2021/03/21 08:56:24;;;;;;;3.38;2.08;;;;;;;;;;5025462;28;20057;-82
2021/03/21 08:59:05;;;;;;;4.15;2.40;;;;;;;;;;5022310;28;20046;-81
2021/03/21 09:01:32;;;;;;;5.13;2.67;;;;;;;;;;5016308;28;20058;-80
2021/03/21 09:04:16;;;;;;;3.58;2.55;;;;;;;;;;5023409;28;20031;-84
2021/03/21 09:06:44;;;;;;;5.50;3.10;;;;;;;;;;5012854;28;20069;-78
2021/03/21 09:09:15;;;;;;;5.03;3.10;;;;;;;;;;5013505;28;20058;-80
2021/03/21 09:11:43;;;;;;;6.80;2.83;;;;;;;;;;5043995;28;20062;-81
2021/03/21 09:14:13;;;;;;;5.53;3.08;;;;;;;;;;5029368;28;20130;-82
2021/03/21 09:17:04;;;;;;;10.10;4.82;;;;;;;;;;5015101;28;20057;-82
2021/03/21 09:19:33;;;;;;;9.05;3.85;;;;;;;;;;5049557;28;20042;-80
2021/03/21 09:22:01;;;;;;;7.15;3.78;;;;;;;;;;5017572;28;20041;-81
2021/03/21 09:24:30;;;;;;;8.02;3.30;;;;;;;;;;5035307;28;20055;-82
2021/03/21 09:27:18;;;;;;;8.43;4.28;;;;;;;;;;5019389;28;20132;-81
2021/03/21 09:29:45;;;;;;;8.77;4.60;;;;;;;;;;5035623;28;20053;-81
2021/03/21 09:32:17;;;;;;;8.55;4.35;;;;;;;;;;5001427;28;20057;-82
2021/03/21 09:34:52;;;;;;;8.60;4.57;;;;;;;;;;4998933;28;20054;-82
2021/03/21 09:37:23;;;;;;;9.43;4.55;;;;;;;;;;4998443;28;20050;-81
2021/03/21 09:40:09;;;;;;;6.93;3.95;;;;;;;;;;4998830;28;20046;-81
2021/03/21 09:42:35;;;;;;;8.18;4.35;;;;;;;;;;4999918;28;20494;-81
2021/03/21 09:45:02;;;;;;;8.45;4.53;;;;;;;;;;5011167;28;20050;-81
2021/03/21 09:47:39;;;;;;;10.10;4.68;;;;;;;;;;4994702;28;20516;-81
2021/03/21 09:50:27;;;;;;;6.18;3.65;;;;;;;;;;4995577;28;20068;-81
2021/03/21 09:53:01;;;;;;;6.72;4.35;;;;;;;;;;4996692;28;20054;-81
2021/03/21 09:55:50;;;;;;;7.20;3.90;;;;;;;;;;4998298;28;20522;-81
2021/03/21 09:58:36;;;;;;;6.63;3.90;;;;;;;;;;4999566;28;20057;-81
2021/03/21 10:01:14;;;;;;;6.53;3.97;;;;;;;;;;5002185;28;20049;-81
2021/03/21 10:03:40;;;;;;;6.15;3.70;;;;;;;;;;4997524;28;20111;-80
2021/03/21 10:06:29;;;;;;;7.93;4.30;;;;;;;;;;4995319;28;20140;-82
2021/03/21 10:09:10;;;;;;;6.95;4.35;;;;;;;;;;4989354;28;20181;-81
2021/03/21 10:11:36;;;;;;;6.57;4.72;;;;;;;;;;5009511;28;20057;-81
2021/03/21 10:14:35;;;;;;;7.28;4.63;;;;;;;;;;5025029;28;20045;-81
2021/03/21 10:17:17;;;;;;;8.35;4.47;;;;;;;;;;4963844;28;20502;-83
2021/03/21 10:19:46;;;;;;;7.85;4.30;;;;;;;;;;5016603;28;20057;-82
2021/03/21 10:22:18;;;;;;;7.03;4.18;;;;;;;;;;5004775;28;20046;-82
2021/03/21 10:24:46;;;;;;;7.60;5.00;;;;;;;;;;5000655;28;20050;-82
2021/03/21 10:27:20;;;;;;;6.45;4.10;;;;;;;;;;4991866;28;20780;-82
2021/03/21 10:30:25;;;;;;;7.50;4.40;;;;;;;;;;5003685;28;20057;-82
2021/03/21 10:33:00;;;;;;;10.60;4.22;;;;;;;;;;5012657;28;20140;-81
2021/03/21 10:35:32;;;;;;;7.55;4.25;;;;;;;;;;5003460;28;20061;-81
2021/03/21 10:38:06;;;;;;;6.82;5.13;;;;;;;;;;5008761;28;20062;-82
2021/03/21 10:40:34;;;;;;;6.18;4.05;;;;;;;;;;5006631;28;20502;-82
2021/03/21 10:43:21;;;;;;;7.40;4.10;;;;;;;;;;5025392;28;20046;-82
2021/03/21 10:45:53;;;;;;;6.63;4.65;;;;;;;;;;5024056;28;20409;-82
2021/03/21 10:48:26;;;;;;;6.13;4.80;;;;;;;;;;4994188;28;20049;-82
2021/03/21 10:51:04;;;;;;;6.45;4.45;;;;;;;;;;5004645;28;20057;-82
2021/03/21 10:53:48;;;;;;;7.07;4.88;;;;;;;;;;4991873;28;20080;-83
2021/03/21 10:56:21;;;;;;;6.03;4.00;;;;;;;;;;5007509;28;20054;-83
2021/03/21 10:58:55;;;;;;;5.68;4.60;;;;;;;;;;4993760;28;20092;-83
2021/03/21 11:01:23;;;;;;;7.00;4.68;;;;;;;;;;5025591;28;20050;-83
2021/03/21 11:03:59;;;;;;;8.23;4.80;;;;;;;;;;5009887;28;20421;-83
2021/03/21 11:06:28;;;;;;;9.95;5.57;;;;;;;;;;5021953;28;20112;-83
2021/03/21 11:08:55;;;;;;;11.63;7.45;;;;;;;;;;4998508;28;20560;-84
2021/03/21 11:11:32;;;;;;;8.55;5.55;;;;;;;;;;5001730;28;20049;-84
2021/03/21 11:19:08;;;;;;;9.70;5.78;;;;;;;;;;5067107;28;20078;-76
2021/03/21 11:21:46;;;;;;;7.78;5.30;;;;;;;;;;5052598;28;20503;-75
2021/03/21 11:24:30;;;;;;;8.00;5.03;;;;;;;;;;5054105;28;20045;-75
2021/03/21 11:26:57;;;;;;;7.25;5.50;;;;;;;;;;5049868;28;20083;-75
2021/03/21 11:29:38;;;;;;;7.78;5.43;;;;;;;;;;5067849;28;20670;-75
2021/03/21 11:32:34;;;;;;;7.80;5.38;;;;;;;;;;5049508;28;20125;-76
2021/03/21 11:35:03;;;;;;;9.00;4.53;;;;;;;;;;5031160;28;20664;-76
2021/03/21 11:37:37;;;;;;;11.85;5.38;;;;;;;;;;5065123;28;20044;-76
2021/03/21 11:40:15;;;;;;;6.43;4.90;;;;;;;;;;5059771;28;20467;-78
2021/03/21 11:42:43;;;;;;;7.65;4.50;;;;;;;;;;5049695;28;20044;-78
2021/03/21 11:45:13;;;;;;;6.72;4.85;;;;;;;;;;5050376;28;20053;-75
2021/03/21 11:47:41;;;;;;;7.45;5.28;;;;;;;;;;5043987;28;20105;-77
2021/03/21 11:50:30;;;;;;;6.50;4.55;;;;;;;;;;5022421;28;20045;-77
2021/03/21 11:52:57;;;;;;;6.60;3.92;;;;;;;;;;5051769;28;20131;-78
2021/03/21 11:55:28;;;;;;;7.70;4.65;;;;;;;;;;5043744;28;20545;-76
2021/03/21 11:58:04;;;;;;;8.00;4.60;;;;;;;;;;5026037;28;20097;-76
2021/03/21 12:00:36;;;;;;;9.20;4.50;;;;;;;;;;5044952;28;20574;-76
2021/03/21 12:03:19;;;;;;;8.63;5.30;;;;;;;;;;5043235;28;20041;-75
2021/03/21 12:05:57;;;;;;;5.60;4.78;;;;;;;;;;5049015;28;20072;-75
2021/03/21 12:08:26;;;;;;;7.27;4.43;;;;;;;;;;5067774;28;20564;-76
2021/03/21 12:10:59;;;;;;;7.72;4.53;;;;;;;;;;5022903;28;20052;-74
2021/03/21 12:13:37;;;;;;;6.53;5.00;;;;;;;;;;5029380;28;20064;-74
2021/03/21 12:16:05;;;;;;;5.97;4.57;;;;;;;;;;5061032;28;20045;-73
2021/03/21 12:18:34;;;;;;;7.03;5.25;;;;;;;;;;5048500;28;20094;-74
2021/03/21 12:21:14;;;;;;;7.53;5.13;;;;;;;;;;5035278;28;20495;-75
2021/03/21 12:23:46;;;;;;;5.88;4.60;;;;;;;;;;5045352;28;20049;-75
2021/03/21 12:26:47;;;;;;;5.22;4.05;;;;;;;;;;5034740;28;20056;-74
2021/03/21 12:29:31;;;;;;;6.55;4.82;;;;;;;;;;5038036;28;20052;-75
2021/03/21 12:32:16;;;;;;;5.30;4.40;;;;;;;;;;5066973;28;20482;-75
2021/03/21 12:34:46;;;;;;;5.93;4.63;;;;;;;;;;5063863;28;20395;-75
2021/03/21 12:37:16;;;;;;;6.80;4.25;;;;;;;;;;5064349;28;20044;-74
2021/03/21 12:39:52;;;;;;;6.50;5.05;;;;;;;;;;5051334;28;20431;-73
2021/03/21 12:42:25;;;;;;;6.70;4.32;;;;;;;;;;5029118;28;20132;-74
2021/03/21 12:45:32;;;;;;;5.97;4.47;;;;;;;;;;5070468;28;20056;-74
2021/03/21 12:48:02;;;;;;;7.15;4.32;;;;;;;;;;4965581;28;20093;-75
2021/03/21 12:50:35;;;;;;;7.10;4.78;;;;;;;;;;4959427;28;20050;-73
2021/03/21 12:53:04;;;;;;;8.82;4.85;;;;;;;;;;5018035;28;20044;-75
2021/03/21 12:55:30;;;;;;;8.55;6.13;;;;;;;;;;5053904;28;20052;-74
2021/03/21 12:57:56;;;;;;;11.43;7.75;;;;;;;;;;5072839;28;20048;-73
2021/03/21 13:00:33;;;;;;;7.43;5.72;;;;;;;;;;5055176;28;20048;-73
2021/03/21 13:03:01;;;;;;;8.77;6.22;;;;;;;;;;5070622;28;20336;-75
2021/03/21 13:05:31;;;;;;;6.75;4.55;;;;;;;;;;5050670;23;20530;-71
2021/03/21 13:07:58;;;;;;;6.13;4.57;;;;;;;;;;5041819;28;20131;-71
2021/03/21 13:10:25;;;;;;;9.73;4.70;;;;;;;;;;5045097;28;20054;-73
2021/03/21 13:12:51;;;;;;;9.60;5.13;;;;;;;;;;5039639;28;20042;-75
2021/03/21 13:15:35;;;;;;;8.20;5.78;;;;;;;;;;5042581;28;20512;-74
2021/03/21 13:18:04;;;;;;;7.97;5.97;;;;;;;;;;5048745;28;20045;-76
2021/03/21 13:20:38;;;;;;;7.13;5.07;;;;;;;;;;5014398;28;20144;-76
2021/03/21 13:23:04;;;;;;;9.27;5.30;;;;;;;;;;5032217;28;20424;-74
2021/03/21 13:25:34;;;;;;;7.28;5.93;;;;;;;;;;5032324;28;20139;-73
2021/03/21 13:28:03;;;;;;;7.90;5.35;;;;;;;;;;5031304;28;20057;-73
2021/03/21 13:30:40;;;;;;;7.28;5.70;;;;;;;;;;5027999;28;20054;-74
2021/03/21 13:33:31;;;;;;;7.25;5.22;;;;;;;;;;5012107;28;20041;-77
2021/03/21 13:35:59;;;;;;;11.35;6.32;;;;;;;;;;5048474;28;20049;-76
2021/03/21 13:38:46;;;;;;;7.65;5.78;;;;;;;;;;5030965;28;20050;-76
2021/03/21 13:41:33;;;;;;;7.70;5.70;;;;;;;;;;5026693;28;20046;-73
2021/03/21 13:43:59;;;;;;;7.88;5.70;;;;;;;;;;5032784;28;20151;-74
2021/03/21 13:46:25;;;;;;;9.20;6.00;;;;;;;;;;5030545;28;20116;-75
2021/03/21 13:48:55;;;;;;;6.35;5.05;;;;;;;;;;5021023;28;20061;-74
2021/03/21 13:51:22;;;;;;;7.85;5.60;;;;;;;;;;5030444;28;20052;-74
2021/03/21 13:53:49;;;;;;;10.70;6.32;;;;;;;;;;5031492;28;20437;-76
2021/03/21 13:56:19;;;;;;;8.30;6.28;;;;;;;;;;5013246;28;20060;-74
2021/03/21 13:58:48;;;;;;;8.82;6.15;;;;;;;;;;5030899;28;20115;-72
2021/03/21 14:01:14;;;;;;;8.20;6.18;;;;;;;;;;5032428;28;20426;-72
2021/03/21 14:03:41;;;;;;;9.10;5.50;;;;;;;;;;5031530;28;20144;-73
2021/03/21 14:06:08;;;;;;;8.32;5.90;;;;;;;;;;5031213;28;20099;-74
2021/03/21 14:08:34;;;;;;;8.40;5.70;;;;;;;;;;5027533;28;20424;-73
2021/03/21 14:11:02;;;;;;;9.27;6.32;;;;;;;;;;5030696;28;20064;-75
2021/03/21 14:13:39;;;;;;;9.50;5.90;;;;;;;;;;5014567;28;20045;-74
2021/03/21 14:16:06;;;;;;;9.18;6.63;;;;;;;;;;5029391;28;20045;-73
2021/03/21 14:18:32;;;;;;;10.20;6.30;;;;;;;;;;5031624;28;20053;-73
2021/03/21 14:20:59;;;;;;;7.50;5.93;;;;;;;;;;5030573;28;20593;-73
2021/03/21 14:23:29;;;;;;;8.05;6.32;;;;;;;;;;5031332;28;20049;-71
2021/03/21 14:25:59;;;;;;;7.88;5.75;;;;;;;;;;5024257;28;20053;-73
2021/03/21 14:28:27;;;;;;;8.05;5.68;;;;;;;;;;5011965;28;20091;-73
2021/03/21 14:30:54;;;;;;;8.20;6.03;;;;;;;;;;5002516;28;22483;-73
2021/03/21 14:33:21;;;;;;;8.05;5.97;;;;;;;;;;5029255;28;20529;-72
2021/03/21 14:35:49;;;;;;;9.85;6.07;;;;;;;;;;5026015;28;20053;-72
2021/03/21 14:38:18;;;;;;;7.65;5.63;;;;;;;;;;5026957;28;20049;-72
2021/03/21 14:40:45;;;;;;;9.90;6.10;;;;;;;;;;5044656;28;20049;-72
2021/03/21 14:43:13;;;;;;;7.85;6.28;;;;;;;;;;5024717;28;20115;-70
2021/03/21 14:45:40;;;;;;;9.07;5.85;;;;;;;;;;5029085;28;20512;-71
2021/03/21 14:48:07;;;;;;;7.80;5.97;;;;;;;;;;5029762;28;20440;-70
2021/03/21 14:50:34;;;;;;;8.65;5.40;;;;;;;;;;5029032;28;20467;-70
2021/03/21 14:53:05;;;;;;;9.77;6.22;;;;;;;;;;5029792;28;20896;-70
2021/03/21 14:55:33;;;;;;;8.82;5.93;;;;;;;;;;5029103;28;20058;-70
2021/03/21 14:58:00;;;;;;;9.63;6.32;;;;;;;;;;5028518;28;20057;-71
2021/03/21 15:00:30;;;;;;;8.00;6.20;;;;;;;;;;5027933;28;20053;-70
2021/03/21 15:02:57;;;;;;;9.02;6.25;;;;;;;;;;5029477;28;20107;-70
2021/03/21 15:05:24;;;;;;;10.35;6.75;;;;;;;;;;5028294;28;20057;-71
2021/03/21 15:07:51;;;;;;;10.95;7.10;;;;;;;;;;5029312;28;20061;-70
2021/03/21 15:10:18;;;;;;;8.45;6.55;;;;;;;;;;5024778;28;20049;-70
2021/03/21 15:12:44;;;;;;;9.13;6.30;;;;;;;;;;5029624;28;20052;-70
2021/03/21 15:15:27;;;;;;;9.23;6.57;;;;;;;;;;5028928;28;20053;-70
2021/03/21 15:17:53;;;;;;;11.20;6.88;;;;;;;;;;5029049;28;20057;-70
2021/03/21 15:20:23;;;;;;;10.15;6.95;;;;;;;;;;5029180;28;20585;-70
2021/03/21 15:22:50;;;;;;;8.27;6.72;;;;;;;;;;5024856;28;20055;-69
2021/03/21 15:25:17;;;;;;;9.02;7.03;;;;;;;;;;5026864;28;20496;-70
2021/03/21 15:27:50;;;;;;;10.90;7.30;;;;;;;;;;5027120;28;20136;-70
2021/03/21 15:30:18;;;;;;;12.45;7.35;;;;;;;;;;5024015;28;20076;-70
2021/03/21 15:32:45;;;;;;;10.70;7.10;;;;;;;;;;5023725;28;20452;-70
2021/03/21 15:35:12;;;;;;;9.93;7.35;;;;;;;;;;5023456;28;20244;-70
2021/03/21 15:37:39;;;;;;;10.15;7.00;;;;;;;;;;5024156;28;20065;-70
2021/03/21 15:40:07;;;;;;;9.27;6.57;;;;;;;;;;5028784;28;20076;-70